Time;durP1;ratioP1;P1;durP2;ratioP2;P2;SDS_P1;SDS_P2;PMS_P1;PMS_P2;Temp;Humidity;BMP_temperature;BMP_pressure;BME280_temperature;BME280_humidity;BME280_pressure;Samples;Min_cycle;Max_cycle;Signal;HPM_P1;HPM_P2
2024/02/20 00:00:11;;;;;;;4.40;1.67;;;9.00;99.90;;;;;;5039723;28;20269;-76
2024/02/20 00:02:44;;;;;;;13.50;2.10;;;9.00;99.90;;;;;;5042782;28;20228;-76
2024/02/20 00:05:10;;;;;;;2.40;1.40;;;9.00;99.90;;;;;;5037398;28;20557;-75
2024/02/20 00:07:40;;;;;;;1.80;1.40;;;9.00;99.90;;;;;;5041323;28;20465;-76
2024/02/20 00:10:10;;;;;;;7.37;1.60;;;9.00;99.90;;;;;;5036593;28;20477;-74
2024/02/20 00:12:39;;;;;;;5.33;1.67;;;9.00;99.90;;;;;;5022060;28;20458;-76
2024/02/20 00:15:08;;;;;;;4.63;1.67;;;8.90;99.90;;;;;;5022251;28;20995;-76
2024/02/20 00:17:34;;;;;;;12.27;2.33;;;8.90;99.90;;;;;;5044777;28;20462;-76
2024/02/20 00:20:00;;;;;;;8.00;1.77;;;8.90;99.90;;;;;;5037926;28;20459;-77
2024/02/20 00:22:27;;;;;;;11.70;2.50;;;8.80;99.90;;;;;;5041423;28;20525;-76
2024/02/20 00:24:52;;;;;;;5.23;1.70;;;8.80;99.90;;;;;;5036199;28;20231;-77
2024/02/20 00:27:18;;;;;;;6.10;2.13;;;8.80;99.90;;;;;;5040498;28;20976;-78
2024/02/20 00:29:44;;;;;;;5.20;1.90;;;8.80;99.90;;;;;;5042713;28;20227;-76
2024/02/20 00:32:10;;;;;;;4.60;1.80;;;8.80;99.90;;;;;;5038118;28;20711;-76
2024/02/20 00:34:35;;;;;;;5.27;2.40;;;8.70;99.90;;;;;;5043909;28;20777;-75
2024/02/20 00:37:01;;;;;;;6.97;2.07;;;8.70;99.90;;;;;;5036639;28;20784;-75
2024/02/20 00:39:27;;;;;;;6.27;2.00;;;8.80;99.90;;;;;;5039520;28;20219;-74
2024/02/20 00:41:53;;;;;;;2.87;2.00;;;8.80;99.90;;;;;;5038495;28;20302;-75
2024/02/20 00:44:22;;;;;;;5.30;2.23;;;8.80;99.90;;;;;;5043629;28;20680;-73
2024/02/20 00:46:47;;;;;;;12.23;2.23;;;8.70;99.90;;;;;;5041910;28;20470;-75
2024/02/20 00:49:13;;;;;;;9.03;2.23;;;8.70;99.90;;;;;;5035151;28;20461;-74
2024/02/20 00:51:38;;;;;;;17.63;2.30;;;8.70;99.90;;;;;;5039838;28;20220;-74
2024/02/20 00:54:04;;;;;;;7.20;2.27;;;8.70;99.90;;;;;;5035574;28;20220;-75
2024/02/20 00:56:30;;;;;;;11.20;2.77;;;8.70;99.90;;;;;;5055943;28;20219;-74
2024/02/20 00:58:56;;;;;;;5.83;2.57;;;8.60;99.90;;;;;;5038878;28;20258;-75
2024/02/20 01:01:21;;;;;;;7.90;2.80;;;8.60;99.90;;;;;;5025903;28;21050;-74
2024/02/20 01:03:48;;;;;;;5.63;2.70;;;8.50;99.90;;;;;;5042077;28;20220;-74
2024/02/20 01:06:13;;;;;;;6.60;3.50;;;8.50;99.90;;;;;;5036874;28;20609;-75
2024/02/20 01:08:39;;;;;;;8.60;2.13;;;8.50;99.90;;;;;;5027500;28;20228;-75
2024/02/20 01:11:06;;;;;;;9.13;2.80;;;8.50;99.90;;;;;;5037679;28;20212;-75
2024/02/20 01:13:32;;;;;;;9.53;3.10;;;8.60;99.90;;;;;;5045998;28;20467;-75
2024/02/20 01:15:58;;;;;;;6.00;2.60;;;8.60;99.90;;;;;;5020908;28;20489;-75
2024/02/20 01:18:25;;;;;;;4.90;2.00;;;8.50;99.90;;;;;;5044768;28;20490;-74
2024/02/20 01:20:51;;;;;;;9.80;2.57;;;8.50;99.90;;;;;;5039665;28;20219;-75
2024/02/20 01:23:17;;;;;;;11.70;2.30;;;8.50;99.90;;;;;;5041769;28;20527;-74
2024/02/20 01:25:43;;;;;;;10.40;2.50;;;8.50;99.90;;;;;;5056782;28;20473;-74
2024/02/20 01:28:10;;;;;;;7.83;2.63;;;8.40;99.90;;;;;;5039112;28;20466;-74
2024/02/20 01:30:36;;;;;;;6.80;2.40;;;8.40;99.90;;;;;;5038270;28;20999;-75
2024/02/20 01:33:02;;;;;;;5.23;2.80;;;8.50;99.90;;;;;;5037454;28;20480;-75
2024/02/20 01:35:28;;;;;;;5.43;2.60;;;8.50;99.90;;;;;;5043237;28;20451;-74
2024/02/20 01:37:56;;;;;;;8.47;3.00;;;8.50;99.90;;;;;;5040284;28;20461;-75
2024/02/20 01:40:22;;;;;;;5.57;3.20;;;8.50;99.90;;;;;;5026290;28;20601;-75
2024/02/20 01:42:58;;;;;;;4.53;2.50;;;8.40;99.90;;;;;;5043597;28;21045;-74
2024/02/20 01:45:26;;;;;;;14.87;3.20;;;8.40;99.90;;;;;;5038923;28;20485;-75
2024/02/20 01:47:52;;;;;;;7.13;2.80;;;8.40;99.90;;;;;;5035389;28;20467;-75
2024/02/20 01:50:18;;;;;;;13.43;3.10;;;8.40;99.90;;;;;;5043017;28;20564;-75
2024/02/20 01:52:44;;;;;;;13.73;2.57;;;8.40;99.90;;;;;;5039264;28;20497;-74
2024/02/20 01:55:11;;;;;;;6.00;2.23;;;8.40;99.90;;;;;;5035981;28;20473;-74
2024/02/20 01:57:38;;;;;;;7.23;2.70;;;8.40;99.90;;;;;;5039239;28;20454;-76
2024/02/20 02:00:07;;;;;;;7.00;2.83;;;8.40;99.90;;;;;;5035389;28;20540;-75
2024/02/20 02:02:39;;;;;;;7.63;2.77;;;8.40;99.90;;;;;;5040376;28;20478;-75
2024/02/20 02:05:05;;;;;;;7.80;3.17;;;8.40;99.90;;;;;;5036382;28;20820;-75
2024/02/20 02:07:31;;;;;;;9.13;2.80;;;8.20;99.90;;;;;;5041425;28;20216;-74
2024/02/20 02:09:56;;;;;;;4.77;2.50;;;8.10;99.90;;;;;;5035859;28;20477;-75
2024/02/20 02:12:22;;;;;;;10.73;2.67;;;8.10;99.90;;;;;;5041060;28;20211;-75
2024/02/20 02:14:48;;;;;;;9.03;2.90;;;8.20;99.90;;;;;;5038064;28;20223;-74
2024/02/20 02:17:14;;;;;;;6.07;2.23;;;8.20;99.90;;;;;;5039008;28;20215;-74
2024/02/20 02:19:40;;;;;;;14.37;3.53;;;8.10;99.90;;;;;;5040129;28;20224;-74
2024/02/20 02:22:06;;;;;;;8.17;2.50;;;8.10;99.90;;;;;;5035159;28;20458;-74
2024/02/20 02:24:35;;;;;;;4.30;2.20;;;7.90;99.90;;;;;;5040589;28;20449;-74
2024/02/20 02:27:02;;;;;;;7.70;2.10;;;7.90;99.90;;;;;;5024838;28;20446;-75
2024/02/20 02:29:28;;;;;;;5.90;2.40;;;8.00;99.90;;;;;;5040062;28;20471;-74
2024/02/20 02:31:55;;;;;;;2.47;2.10;;;8.10;99.90;;;;;;5048395;28;20524;-75
2024/02/20 02:34:21;;;;;;;6.97;2.20;;;8.10;99.90;;;;;;5024074;28;20475;-74
2024/02/20 02:36:47;;;;;;;8.73;2.90;;;8.00;99.90;;;;;;5022069;28;20466;-74
2024/02/20 02:39:16;;;;;;;4.90;2.40;;;8.00;99.90;;;;;;5049259;28;20488;-74
2024/02/20 02:41:42;;;;;;;4.07;2.23;;;8.00;99.90;;;;;;5022952;28;20455;-74
2024/02/20 02:44:07;;;;;;;9.87;3.13;;;8.00;99.90;;;;;;5035767;28;20515;-74
2024/02/20 02:46:33;;;;;;;4.80;2.07;;;8.00;99.90;;;;;;5020557;28;20216;-74
2024/02/20 02:48:59;;;;;;;7.63;2.37;;;8.00;99.90;;;;;;5020126;28;20217;-74
2024/02/20 02:51:24;;;;;;;5.17;2.30;;;7.90;99.90;;;;;;5039385;28;20219;-74
2024/02/20 02:53:51;;;;;;;6.40;1.80;;;7.90;99.90;;;;;;5037791;28;20757;-74
2024/02/20 02:56:16;;;;;;;9.47;2.27;;;7.90;99.90;;;;;;5036951;28;20639;-73
2024/02/20 02:58:42;;;;;;;7.13;2.80;;;7.90;99.90;;;;;;5040360;28;20531;-75
2024/02/20 03:01:09;;;;;;;3.43;1.83;;;7.90;99.90;;;;;;5020651;28;20216;-74
2024/02/20 03:03:35;;;;;;;3.00;1.50;;;8.00;99.90;;;;;;5040895;28;20266;-75
2024/02/20 03:06:08;;;;;;;4.60;1.77;;;8.00;99.90;;;;;;5035867;28;21061;-74
2024/02/20 03:08:44;;;;;;;5.40;1.73;;;8.00;99.90;;;;;;5036232;28;20470;-74
2024/02/20 03:11:11;;;;;;;4.70;1.93;;;8.00;99.90;;;;;;5037863;28;20469;-74
2024/02/20 03:13:37;;;;;;;6.10;2.33;;;8.00;99.90;;;;;;5058044;28;20468;-74
2024/02/20 03:16:06;;;;;;;5.50;1.87;;;8.00;99.90;;;;;;5037830;28;20458;-74
2024/02/20 03:18:34;;;;;;;3.23;1.50;;;8.10;99.90;;;;;;5038655;28;20462;-74
2024/02/20 03:21:00;;;;;;;7.80;2.17;;;8.10;99.90;;;;;;5051624;28;20922;-75
2024/02/20 03:23:27;;;;;;;6.03;1.50;;;7.90;99.90;;;;;;5042136;28;20450;-74
2024/02/20 03:25:53;;;;;;;12.63;2.37;;;7.70;99.90;;;;;;5044147;28;20465;-75
2024/02/20 03:28:19;;;;;;;4.53;2.17;;;7.60;99.90;;;;;;5041973;28;20454;-74
2024/02/20 03:30:44;;;;;;;3.80;1.97;;;7.70;99.90;;;;;;5045301;28;20299;-75
2024/02/20 03:33:10;;;;;;;12.27;2.40;;;7.70;99.90;;;;;;5020701;28;20218;-74
2024/02/20 03:35:36;;;;;;;5.50;2.80;;;7.60;99.90;;;;;;5044257;28;20224;-74
2024/02/20 03:38:02;;;;;;;2.43;1.83;;;7.60;99.90;;;;;;5037795;28;20209;-75
2024/02/20 03:40:28;;;;;;;5.20;2.33;;;7.60;99.90;;;;;;5037705;28;20251;-74
2024/02/20 03:42:53;;;;;;;8.60;2.20;;;7.60;99.90;;;;;;5049122;28;20863;-74
2024/02/20 03:45:19;;;;;;;12.50;2.27;;;7.70;99.90;;;;;;5047393;28;20225;-74
2024/02/20 03:47:45;;;;;;;4.07;1.73;;;7.60;99.90;;;;;;5050805;28;20232;-74
2024/02/20 03:50:11;;;;;;;5.03;2.10;;;7.60;99.90;;;;;;5049406;28;20212;-74
2024/02/20 03:52:36;;;;;;;13.43;2.30;;;7.50;99.90;;;;;;5052207;28;20470;-75
2024/02/20 03:55:02;;;;;;;4.77;2.40;;;7.50;99.90;;;;;;5040800;28;20223;-74
2024/02/20 03:57:28;;;;;;;7.17;1.97;;;7.50;99.90;;;;;;5043850;28;20213;-74
2024/02/20 03:59:55;;;;;;;13.77;2.57;;;7.50;99.90;;;;;;5045278;28;20294;-74
2024/02/20 04:02:21;;;;;;;3.37;2.10;;;7.60;99.90;;;;;;5042231;28;20328;-75
2024/02/20 04:04:46;;;;;;;2.20;2.00;;;7.60;99.90;;;;;;5025484;28;20557;-74
2024/02/20 04:07:12;;;;;;;3.20;1.87;;;7.70;99.90;;;;;;5040475;28;20216;-75
2024/02/20 04:09:38;;;;;;;5.57;2.10;;;7.50;99.90;;;;;;5044687;28;20289;-75
2024/02/20 04:12:04;;;;;;;8.47;2.13;;;7.50;99.90;;;;;;5035165;28;20274;-75
2024/02/20 04:14:30;;;;;;;4.90;1.77;;;7.50;99.90;;;;;;5042880;28;20204;-74
2024/02/20 04:16:56;;;;;;;8.33;1.90;;;7.50;99.90;;;;;;5041540;28;20451;-75
2024/02/20 04:19:21;;;;;;;4.67;2.33;;;7.50;99.90;;;;;;5041164;28;20230;-74
2024/02/20 04:21:47;;;;;;;7.27;2.50;;;7.50;99.90;;;;;;5029581;28;20226;-74
2024/02/20 04:24:13;;;;;;;9.47;2.97;;;7.50;99.90;;;;;;5039070;28;20209;-74
2024/02/20 04:26:38;;;;;;;3.27;1.80;;;7.40;99.90;;;;;;5043750;28;20569;-75
2024/02/20 04:29:04;;;;;;;7.20;2.00;;;7.40;99.90;;;;;;5035428;28;20677;-75
2024/02/20 04:31:30;;;;;;;9.07;2.90;;;7.40;99.90;;;;;;5041904;28;20224;-74
2024/02/20 04:33:55;;;;;;;6.43;2.00;;;7.40;99.90;;;;;;5040817;28;20282;-75
2024/02/20 04:36:22;;;;;;;6.37;2.30;;;7.50;99.90;;;;;;5042710;28;20224;-74
2024/02/20 04:38:49;;;;;;;4.40;2.10;;;7.50;99.90;;;;;;5041247;28;20285;-74
2024/02/20 04:41:25;;;;;;;4.83;1.80;;;7.50;99.90;;;;;;5041026;28;20459;-74
2024/02/20 04:43:51;;;;;;;9.67;2.40;;;7.60;99.90;;;;;;5045494;28;20462;-74
2024/02/20 04:46:16;;;;;;;3.27;1.73;;;7.60;99.90;;;;;;5054442;28;20462;-74
2024/02/20 04:48:42;;;;;;;7.37;2.30;;;7.60;99.90;;;;;;5044919;28;20224;-74
2024/02/20 04:51:08;;;;;;;4.50;1.80;;;7.60;99.90;;;;;;5038318;28;20231;-74
2024/02/20 04:53:34;;;;;;;9.90;2.80;;;7.60;99.90;;;;;;5042851;28;20216;-74
2024/02/20 04:55:59;;;;;;;2.20;1.43;;;7.60;99.90;;;;;;5037940;28;20470;-74
2024/02/20 04:58:26;;;;;;;5.23;2.00;;;7.50;99.90;;;;;;5046953;28;20247;-74
2024/02/20 05:00:51;;;;;;;8.50;2.57;;;7.60;99.90;;;;;;5024670;28;20223;-75
2024/02/20 05:03:17;;;;;;;11.33;2.63;;;7.60;99.90;;;;;;5053212;28;20462;-75
2024/02/20 05:05:43;;;;;;;5.20;2.63;;;7.60;99.90;;;;;;5040708;28;20224;-74
2024/02/20 05:08:09;;;;;;;7.90;2.53;;;7.60;99.90;;;;;;5037570;28;20224;-74
2024/02/20 05:10:34;;;;;;;8.43;2.10;;;7.60;99.90;;;;;;5025834;28;20606;-76
2024/02/20 05:13:00;;;;;;;2.60;2.10;;;7.50;99.90;;;;;;5020749;28;20223;-75
2024/02/20 05:15:26;;;;;;;8.73;2.23;;;7.40;99.90;;;;;;5038370;28;20218;-74
2024/02/20 05:17:51;;;;;;;5.93;1.73;;;7.40;99.90;;;;;;5022117;28;20219;-73
2024/02/20 05:20:17;;;;;;;9.37;2.90;;;7.40;99.90;;;;;;5020951;28;20231;-75
2024/02/20 05:22:43;;;;;;;6.97;2.40;;;7.50;99.90;;;;;;5021997;28;20227;-76
2024/02/20 05:25:09;;;;;;;3.57;2.40;;;7.60;99.90;;;;;;5052155;28;20220;-75
2024/02/20 05:27:34;;;;;;;4.10;2.00;;;7.50;99.90;;;;;;5045075;28;20307;-75
2024/02/20 05:30:00;;;;;;;7.10;2.57;;;7.50;99.90;;;;;;5037163;28;20239;-75
2024/02/20 05:32:26;;;;;;;7.50;2.10;;;7.50;99.90;;;;;;5039795;28;20354;-75
2024/02/20 05:34:51;;;;;;;2.90;1.77;;;7.40;99.90;;;;;;5044927;28;20212;-74
2024/02/20 05:37:17;;;;;;;8.67;1.90;;;7.40;99.90;;;;;;5038722;28;20226;-73
2024/02/20 05:39:43;;;;;;;5.10;2.43;;;7.40;99.90;;;;;;5027015;28;20224;-74
2024/02/20 05:42:08;;;;;;;8.30;2.50;;;7.30;99.90;;;;;;5021926;28;20239;-75
2024/02/20 05:44:34;;;;;;;4.30;2.10;;;7.30;99.90;;;;;;5045973;28;20216;-75
2024/02/20 05:47:00;;;;;;;4.50;2.43;;;7.30;99.90;;;;;;5039471;28;20269;-75
2024/02/20 05:49:25;;;;;;;5.03;2.70;;;7.30;99.90;;;;;;5044449;28;20231;-74
2024/02/20 05:51:51;;;;;;;6.20;2.60;;;7.20;99.90;;;;;;5025135;28;20224;-75
2024/02/20 05:54:17;;;;;;;6.83;2.63;;;7.10;99.90;;;;;;5034954;28;20231;-74
2024/02/20 05:56:43;;;;;;;6.83;1.80;;;7.10;99.90;;;;;;5042931;28;20227;-76
2024/02/20 05:59:09;;;;;;;4.73;2.17;;;7.10;99.90;;;;;;5034721;28;20636;-74
2024/02/20 06:01:34;;;;;;;2.70;2.30;;;7.10;99.90;;;;;;5011500;28;20454;-74
2024/02/20 06:04:04;;;;;;;4.13;2.20;;;7.10;99.90;;;;;;5022408;28;20243;-74
2024/02/20 06:06:30;;;;;;;5.80;2.40;;;7.10;99.90;;;;;;5044657;28;20232;-75
2024/02/20 06:08:55;;;;;;;9.67;3.10;;;7.10;99.90;;;;;;5021774;28;20560;-75
2024/02/20 06:11:22;;;;;;;7.70;3.73;;;7.00;99.90;;;;;;5040011;28;20562;-74
2024/02/20 06:13:49;;;;;;;5.33;2.77;;;7.10;99.90;;;;;;5043424;28;20585;-75
2024/02/20 06:16:15;;;;;;;7.40;2.20;;;7.20;99.90;;;;;;5035916;28;20470;-75
2024/02/20 06:18:41;;;;;;;7.07;2.20;;;7.30;99.90;;;;;;5038331;28;20536;-75
2024/02/20 06:21:08;;;;;;;4.70;2.50;;;7.30;99.90;;;;;;5036110;28;20466;-74
2024/02/20 06:23:42;;;;;;;5.87;2.27;;;7.30;99.90;;;;;;5041145;28;20450;-75
2024/02/20 06:26:08;;;;;;;4.50;2.30;;;7.40;99.90;;;;;;5026485;28;20881;-74
2024/02/20 06:28:34;;;;;;;4.30;2.57;;;7.40;99.90;;;;;;5026328;28;20469;-75
2024/02/20 06:31:05;;;;;;;5.53;2.90;;;7.40;99.90;;;;;;5034381;28;20475;-75
2024/02/20 06:33:30;;;;;;;2.70;2.30;;;7.40;99.90;;;;;;5042229;28;20815;-75
2024/02/20 06:35:56;;;;;;;4.83;2.40;;;7.40;99.90;;;;;;5037657;28;20545;-75
2024/02/20 06:38:22;;;;;;;5.37;2.83;;;7.20;99.90;;;;;;5039304;28;20228;-75
2024/02/20 06:40:48;;;;;;;7.20;2.83;;;7.20;99.90;;;;;;5038274;28;20231;-75
2024/02/20 06:43:13;;;;;;;12.83;3.53;;;7.10;99.90;;;;;;5036272;28;20222;-73
2024/02/20 06:45:40;;;;;;;11.23;3.83;;;7.10;99.90;;;;;;5043193;28;20227;-75
2024/02/20 06:48:07;;;;;;;11.63;3.17;;;7.20;99.90;;;;;;5039649;28;20238;-74
2024/02/20 06:50:33;;;;;;;6.73;2.70;;;7.20;99.90;;;;;;5043232;28;20497;-74
2024/02/20 06:52:58;;;;;;;8.13;2.47;;;7.30;99.90;;;;;;5025550;28;20478;-76
2024/02/20 06:55:24;;;;;;;9.40;3.70;;;7.30;99.90;;;;;;5046202;28;20299;-75
2024/02/20 06:57:54;;;;;;;4.57;2.23;;;7.30;99.90;;;;;;5044984;28;20239;-74
2024/02/20 07:00:19;;;;;;;5.77;3.10;;;7.30;99.90;;;;;;5042639;28;20220;-75
2024/02/20 07:02:45;;;;;;;14.53;3.73;;;7.20;99.90;;;;;;5042259;28;20473;-75
2024/02/20 07:05:12;;;;;;;6.13;2.03;;;7.10;99.90;;;;;;5043699;28;20494;-75
2024/02/20 07:07:38;;;;;;;11.70;3.03;;;7.10;99.90;;;;;;5033673;28;20295;-74
2024/02/20 07:10:06;;;;;;;6.77;3.13;;;7.10;99.90;;;;;;5037006;28;20469;-76
2024/02/20 07:12:33;;;;;;;10.60;3.03;;;7.10;99.90;;;;;;5043187;28;20454;-75
2024/02/20 07:15:01;;;;;;;15.53;3.43;;;7.00;99.90;;;;;;5042488;28;20461;-75
2024/02/20 07:17:27;;;;;;;6.10;3.03;;;7.00;99.90;;;;;;5041231;28;20591;-75
2024/02/20 07:19:53;;;;;;;3.77;2.63;;;7.00;99.90;;;;;;5056265;28;21056;-75
2024/02/20 07:22:19;;;;;;;9.63;2.70;;;7.10;99.90;;;;;;5042244;28;20217;-75
2024/02/20 07:24:44;;;;;;;10.10;3.70;;;7.10;99.90;;;;;;5040133;28;20828;-75
2024/02/20 07:27:10;;;;;;;6.50;3.33;;;7.10;99.90;;;;;;5038876;28;20211;-75
2024/02/20 07:29:42;;;;;;;11.17;3.70;;;7.20;99.90;;;;;;5058632;28;20715;-74
2024/02/20 07:32:09;;;;;;;5.10;3.10;;;7.20;99.90;;;;;;5055046;28;20208;-74
2024/02/20 07:34:37;;;;;;;7.60;2.70;;;7.20;99.90;;;;;;5043863;28;20441;-74
2024/02/20 07:37:03;;;;;;;7.93;3.07;;;7.20;99.90;;;;;;5039213;28;20442;-75
2024/02/20 07:39:29;;;;;;;9.70;2.37;;;7.20;99.90;;;;;;5041448;28;20437;-75
2024/02/20 07:41:55;;;;;;;5.13;3.30;;;7.20;99.90;;;;;;5041537;28;20457;-75
2024/02/20 07:44:21;;;;;;;12.13;3.37;;;7.20;99.90;;;;;;5041324;28;20204;-74
2024/02/20 07:46:47;;;;;;;4.23;3.00;;;7.30;99.90;;;;;;5042513;28;20457;-76
2024/02/20 07:49:13;;;;;;;5.43;2.90;;;7.30;99.90;;;;;;5038580;28;20219;-75
2024/02/20 07:51:39;;;;;;;14.57;4.13;;;7.30;99.90;;;;;;5040634;28;20276;-75
2024/02/20 07:54:05;;;;;;;5.50;2.77;;;7.30;99.90;;;;;;5040111;28;20884;-75
2024/02/20 07:56:30;;;;;;;7.53;3.03;;;7.40;99.90;;;;;;5044046;28;20299;-75
2024/02/20 07:58:56;;;;;;;6.93;3.77;;;7.40;99.90;;;;;;5046544;28;20554;-75
2024/02/20 08:01:24;;;;;;;9.80;2.87;;;7.40;99.90;;;;;;5044794;28;20434;-75
2024/02/20 08:03:52;;;;;;;13.23;3.80;;;7.40;99.90;;;;;;5044272;28;20884;-76
2024/02/20 08:06:22;;;;;;;11.13;3.17;;;7.50;99.90;;;;;;5039643;28;20469;-73
2024/02/20 08:08:48;;;;;;;8.37;3.37;;;7.50;99.90;;;;;;5040698;28;20467;-76
2024/02/20 08:11:14;;;;;;;5.30;3.10;;;7.60;99.90;;;;;;5039724;28;20478;-74
2024/02/20 08:13:46;;;;;;;5.40;3.17;;;7.60;99.90;;;;;;5026530;28;20453;-75
2024/02/20 08:16:13;;;;;;;5.57;2.17;;;7.60;99.90;;;;;;5038325;28;20530;-75
2024/02/20 08:18:40;;;;;;;6.53;3.53;;;7.70;99.90;;;;;;5040913;28;20463;-75
2024/02/20 08:21:10;;;;;;;5.67;2.70;;;7.80;99.90;;;;;;5037699;28;20474;-75
2024/02/20 08:23:42;;;;;;;2.93;2.63;;;7.80;99.90;;;;;;5040248;28;20457;-75
2024/02/20 08:26:08;;;;;;;9.97;3.53;;;7.90;99.90;;;;;;5037834;28;20964;-75
2024/02/20 08:28:33;;;;;;;7.80;2.90;;;8.00;99.90;;;;;;5040857;28;20470;-75
2024/02/20 08:30:59;;;;;;;8.20;3.03;;;8.00;99.90;;;;;;5038244;28;20234;-75
2024/02/20 08:33:25;;;;;;;11.13;2.93;;;8.10;99.90;;;;;;5027225;28;20302;-75
2024/02/20 08:35:53;;;;;;;5.50;2.50;;;8.20;99.90;;;;;;5029100;28;20223;-75
2024/02/20 08:38:20;;;;;;;8.50;3.43;;;8.20;99.90;;;;;;5045853;28;20300;-75
2024/02/20 08:40:45;;;;;;;6.30;2.87;;;8.30;99.90;;;;;;5049514;28;20556;-75
2024/02/20 08:43:11;;;;;;;11.03;3.30;;;8.30;99.90;;;;;;5043624;28;20490;-75
2024/02/20 08:45:37;;;;;;;5.37;2.90;;;8.40;99.90;;;;;;5060657;28;20228;-75
2024/02/20 08:48:03;;;;;;;6.50;3.10;;;8.40;99.90;;;;;;5026600;28;20481;-75
2024/02/20 08:50:29;;;;;;;4.13;3.20;;;8.60;99.90;;;;;;5047767;28;20894;-75
2024/02/20 08:52:55;;;;;;;10.40;3.37;;;8.70;99.90;;;;;;5044778;28;20637;-76
2024/02/20 08:55:20;;;;;;;9.30;3.60;;;8.80;99.90;;;;;;5041580;28;20243;-75
2024/02/20 08:57:46;;;;;;;14.13;4.80;;;8.90;99.90;;;;;;5047498;28;20265;-75
2024/02/20 09:00:12;;;;;;;4.77;3.37;;;9.00;99.90;;;;;;5046741;28;20218;-75
2024/02/20 09:02:41;;;;;;;7.83;4.07;;;9.10;99.90;;;;;;5060550;28;20216;-75
2024/02/20 09:05:10;;;;;;;7.70;3.80;;;9.10;99.90;;;;;;5030774;28;20461;-75
2024/02/20 09:07:36;;;;;;;9.20;3.47;;;9.20;99.90;;;;;;5048915;28;20486;-75
2024/02/20 09:10:05;;;;;;;5.97;2.90;;;9.20;99.90;;;;;;5043249;28;20455;-75
2024/02/20 09:12:33;;;;;;;11.10;3.40;;;9.30;99.90;;;;;;5046442;28;20466;-75
2024/02/20 09:15:00;;;;;;;7.73;2.87;;;9.30;99.90;;;;;;5047720;28;20458;-75
2024/02/20 09:17:26;;;;;;;7.70;4.37;;;9.30;99.90;;;;;;5045085;28;20438;-75
2024/02/20 09:19:52;;;;;;;11.77;4.60;;;9.40;99.90;;;;;;5042764;28;20447;-75
2024/02/20 09:22:17;;;;;;;11.10;3.40;;;9.40;99.90;;;;;;5028664;28;21041;-75
2024/02/20 09:24:43;;;;;;;7.63;3.67;;;9.40;99.90;;;;;;5046971;28;20266;-75
2024/02/20 09:27:09;;;;;;;12.67;3.23;;;9.50;99.90;;;;;;5047824;28;20208;-75
2024/02/20 09:29:34;;;;;;;15.67;4.23;;;9.50;99.90;;;;;;5030549;28;20314;-75
2024/02/20 09:32:00;;;;;;;10.20;3.30;;;9.50;99.90;;;;;;5044615;28;20238;-76
2024/02/20 09:34:26;;;;;;;7.70;3.33;;;9.60;99.90;;;;;;5045818;28;20215;-75
2024/02/20 09:36:52;;;;;;;10.67;3.63;;;9.70;99.90;;;;;;5048716;28;20224;-75
2024/02/20 09:39:22;;;;;;;12.00;3.90;;;9.70;99.90;;;;;;5045472;28;20505;-76
2024/02/20 09:41:51;;;;;;;9.17;3.70;;;9.80;99.90;;;;;;5044692;28;20232;-76
2024/02/20 09:44:21;;;;;;;10.47;3.60;;;9.90;99.90;;;;;;5027922;28;20903;-75
2024/02/20 09:46:47;;;;;;;5.67;2.40;;;9.80;99.90;;;;;;5047953;28;20493;-75
2024/02/20 09:49:14;;;;;;;7.10;3.60;;;9.70;99.90;;;;;;5045304;28;20508;-75
2024/02/20 09:51:42;;;;;;;6.47;2.70;;;9.80;99.90;;;;;;5044466;28;20481;-75
2024/02/20 09:54:08;;;;;;;9.43;3.40;;;10.00;99.90;;;;;;5047082;28;20451;-75
2024/02/20 09:56:36;;;;;;;15.57;8.03;;;10.20;99.90;;;;;;5031615;28;20528;-75
2024/02/20 09:59:06;;;;;;;14.87;7.07;;;10.20;99.90;;;;;;5043792;28;20493;-77
2024/02/20 10:01:33;;;;;;;8.47;4.57;;;10.20;99.90;;;;;;5045996;28;20485;-75
2024/02/20 10:04:02;;;;;;;14.13;3.83;;;10.20;99.90;;;;;;5042531;28;20478;-76
2024/02/20 10:06:30;;;;;;;4.17;3.70;;;10.30;99.90;;;;;;5041187;28;20450;-75
2024/02/20 10:08:56;;;;;;;27.33;12.17;;;10.30;99.90;;;;;;5043575;28;20963;-75
2024/02/20 10:11:23;;;;;;;36.83;21.70;;;10.40;99.90;;;;;;5044261;28;20462;-75
2024/02/20 10:13:52;;;;;;;17.13;12.27;;;10.40;99.90;;;;;;5043267;28;20501;-75
2024/02/20 10:16:24;;;;;;;9.07;7.27;;;10.40;99.90;;;;;;5044230;28;20493;-75
2024/02/20 10:18:57;;;;;;;11.50;5.43;;;10.50;99.90;;;;;;5042224;28;20484;-75
2024/02/20 10:21:23;;;;;;;6.50;3.93;;;10.60;99.90;;;;;;5038156;28;20450;-75
2024/02/20 10:24:06;;;;;;;18.23;4.73;;;10.60;99.90;;;;;;5042553;28;20454;-75
2024/02/20 10:26:37;;;;;;;11.83;3.70;;;10.80;99.90;;;;;;5043166;28;20466;-75
2024/02/20 10:29:06;;;;;;;8.33;3.13;;;10.80;99.90;;;;;;5053833;28;20461;-76
2024/02/20 10:31:32;;;;;;;15.80;3.53;;;10.80;99.90;;;;;;5037144;28;20480;-75
2024/02/20 10:33:59;;;;;;;4.87;2.73;;;10.80;99.90;;;;;;5043991;28;20846;-75
2024/02/20 10:36:28;;;;;;;11.40;3.77;;;10.80;99.90;;;;;;5054383;28;20493;-75
2024/02/20 10:39:10;;;;;;;4.63;3.10;;;10.90;99.90;;;;;;5036816;28;20467;-76
2024/02/20 10:41:36;;;;;;;12.77;3.93;;;11.00;99.90;;;;;;5039230;28;20549;-75
2024/02/20 10:44:03;;;;;;;8.73;3.70;;;11.10;99.90;;;;;;5039131;28;20500;-76
2024/02/20 10:46:37;;;;;;;4.10;2.90;;;11.00;99.90;;;;;;5056310;28;20459;-76
2024/02/20 10:49:16;;;;;;;5.37;2.70;;;10.90;99.90;;;;;;5050785;28;21005;-75
2024/02/20 10:51:43;;;;;;;8.17;3.23;;;10.90;99.90;;;;;;5025975;28;20469;-75
2024/02/20 10:54:09;;;;;;;4.70;3.20;;;10.90;99.90;;;;;;5040747;28;20450;-75
2024/02/20 10:56:35;;;;;;;4.47;3.50;;;11.10;99.90;;;;;;5035101;28;20516;-75
2024/02/20 10:59:04;;;;;;;6.43;2.83;;;11.10;99.90;;;;;;5016067;28;20224;-75
2024/02/20 11:01:31;;;;;;;5.57;3.00;;;11.20;99.90;;;;;;5037995;28;20458;-75
2024/02/20 11:03:57;;;;;;;8.97;2.80;;;11.30;99.90;;;;;;5037526;28;20556;-75
2024/02/20 11:06:24;;;;;;;15.93;3.30;;;11.40;99.90;;;;;;5034997;28;20524;-76
2024/02/20 11:08:49;;;;;;;6.60;3.20;;;11.40;99.90;;;;;;5056190;28;20862;-76
2024/02/20 11:11:16;;;;;;;16.57;3.87;;;11.50;99.90;;;;;;5033335;28;20474;-75
2024/02/20 11:13:42;;;;;;;12.03;3.27;;;11.50;99.90;;;;;;5035954;28;20224;-75
2024/02/20 11:16:13;;;;;;;5.70;2.40;;;11.50;99.90;;;;;;5029988;28;21004;-75
2024/02/20 11:18:52;;;;;;;5.40;2.50;;;11.50;99.90;;;;;;5036398;28;20463;-76
2024/02/20 11:21:28;;;;;;;4.93;3.70;;;11.50;99.90;;;;;;5032574;28;20469;-75
2024/02/20 11:23:55;;;;;;;12.80;4.70;;;11.60;99.90;;;;;;5020541;28;20473;-75
2024/02/20 11:26:28;;;;;;;9.33;3.27;;;11.50;99.90;;;;;;5036929;28;20504;-74
2024/02/20 11:28:57;;;;;;;8.70;3.40;;;11.60;99.90;;;;;;5039463;28;21059;-76
2024/02/20 11:31:28;;;;;;;8.80;3.07;;;11.50;99.90;;;;;;5035537;28;20966;-75
2024/02/20 11:33:55;;;;;;;9.30;2.87;;;11.60;99.90;;;;;;5041326;28;20534;-76
2024/02/20 11:36:20;;;;;;;5.73;2.90;;;11.60;99.90;;;;;;5030360;28;20468;-74
2024/02/20 11:39:00;;;;;;;6.30;3.93;;;11.50;99.90;;;;;;5040541;28;20473;-76
2024/02/20 11:41:26;;;;;;;9.23;3.23;;;11.50;99.90;;;;;;5055747;28;20220;-76
2024/02/20 11:44:03;;;;;;;9.60;3.70;;;11.50;99.90;;;;;;5041741;28;20485;-75
2024/02/20 11:46:29;;;;;;;8.33;4.73;;;11.50;99.90;;;;;;5024585;28;20477;-75
2024/02/20 11:48:55;;;;;;;13.57;5.00;;;11.40;99.90;;;;;;5040469;28;20502;-75
2024/02/20 11:51:21;;;;;;;9.07;4.13;;;11.40;99.90;;;;;;5034953;28;22025;-75
2024/02/20 11:53:48;;;;;;;4.77;3.27;;;11.40;99.90;;;;;;5043091;28;20220;-75
2024/02/20 11:56:14;;;;;;;6.73;2.90;;;11.40;99.90;;;;;;5038913;28;20462;-75
2024/02/20 11:58:40;;;;;;;8.20;3.37;;;11.40;99.90;;;;;;5026581;28;20489;-75
2024/02/20 12:01:06;;;;;;;7.03;3.20;;;11.40;99.90;;;;;;5037553;28;20849;-75
2024/02/20 12:03:33;;;;;;;2.30;2.10;;;11.40;99.90;;;;;;5055576;28;20224;-74
2024/02/20 12:06:04;;;;;;;3.07;2.60;;;11.40;99.90;;;;;;5042847;28;20450;-75
2024/02/20 12:08:41;;;;;;;3.80;2.80;;;11.50;99.90;;;;;;5039670;28;20819;-75
2024/02/20 12:11:08;;;;;;;9.30;3.20;;;11.50;99.90;;;;;;5035487;28;20482;-76
2024/02/20 12:13:35;;;;;;;8.90;3.43;;;11.50;99.90;;;;;;5027038;28;20446;-75
2024/02/20 12:16:01;;;;;;;5.27;3.80;;;11.60;99.90;;;;;;5060502;28;20471;-75
2024/02/20 12:18:29;;;;;;;8.50;3.40;;;11.60;99.90;;;;;;5023466;28;20474;-75
2024/02/20 12:21:05;;;;;;;6.90;2.80;;;11.70;99.90;;;;;;5041435;28;20462;-75
2024/02/20 12:23:31;;;;;;;2.77;2.43;;;11.70;99.90;;;;;;5040464;28;20481;-75
2024/02/20 12:26:11;;;;;;;4.37;2.07;;;11.70;99.90;;;;;;5039053;28;20462;-75
2024/02/20 12:28:38;;;;;;;10.00;2.93;;;11.60;99.90;;;;;;5022943;28;20310;-75
2024/02/20 12:31:05;;;;;;;13.70;8.67;;;11.50;99.90;;;;;;5036445;28;20979;-75
2024/02/20 12:33:35;;;;;;;9.23;6.53;;;11.50;99.90;;;;;;5025755;28;20465;-75
2024/02/20 12:36:04;;;;;;;5.40;4.70;;;11.40;99.90;;;;;;5044977;28;20584;-76
2024/02/20 12:38:29;;;;;;;10.20;3.50;;;11.40;99.90;;;;;;5039678;28;20474;-75
2024/02/20 12:40:58;;;;;;;3.90;2.83;;;11.40;99.90;;;;;;5044595;28;20459;-76
2024/02/20 12:43:24;;;;;;;6.90;3.27;;;11.40;99.90;;;;;;5022395;28;20247;-75
2024/02/20 12:45:50;;;;;;;6.97;2.67;;;11.40;99.90;;;;;;5041373;28;20478;-76
2024/02/20 12:48:16;;;;;;;4.20;2.70;;;11.30;99.90;;;;;;5038893;28;20878;-75
2024/02/20 12:50:42;;;;;;;3.20;2.73;;;11.30;99.90;;;;;;5055467;28;20492;-75